createdAt,value
2019-02-23T00:02:14.142Z,4.10
2019-02-23T00:04:43.260Z,4.00
2019-02-23T00:07:12.360Z,3.90
2019-02-23T00:09:41.487Z,3.90
2019-02-23T00:12:10.672Z,3.80
2019-02-23T00:14:40.162Z,3.80
2019-02-23T00:17:09.334Z,3.80
2019-02-23T00:19:38.417Z,3.80
2019-02-23T00:22:07.625Z,3.80
2019-02-23T00:24:36.701Z,3.70
2019-02-23T00:27:05.869Z,3.70
2019-02-23T00:29:34.936Z,3.80
2019-02-23T00:32:04.240Z,3.80
2019-02-23T00:34:33.396Z,3.80
2019-02-23T00:37:02.513Z,3.80
2019-02-23T00:39:31.957Z,3.80
2019-02-23T00:42:02.580Z,3.70
2019-02-23T00:44:31.711Z,3.70
2019-02-23T00:47:01.189Z,3.70
2019-02-23T00:49:36.258Z,3.60
2019-02-23T00:52:01.317Z,3.60
2019-02-23T00:54:30.757Z,3.50
2019-02-23T00:56:59.881Z,3.50
2019-02-23T00:59:28.937Z,3.50
2019-02-23T01:01:58.197Z,3.50
2019-02-23T01:04:27.641Z,3.50
2019-02-23T01:06:56.676Z,3.50
2019-02-23T01:09:26.140Z,3.50
2019-02-23T01:11:55.567Z,3.60
2019-02-23T01:14:25.162Z,3.60
2019-02-23T01:16:54.547Z,3.60
2019-02-23T01:19:23.809Z,3.60
2019-02-23T01:21:52.963Z,3.60
2019-02-23T01:24:22.131Z,3.60
2019-02-23T01:26:51.237Z,3.70
2019-02-23T01:29:20.301Z,3.70
2019-02-23T01:31:49.397Z,3.70
2019-02-23T01:34:18.567Z,3.80
2019-02-23T01:36:47.625Z,3.80
2019-02-23T01:39:16.890Z,3.80
2019-02-23T01:41:45.993Z,3.80
2019-02-23T01:44:15.084Z,3.90
2019-02-23T01:46:44.225Z,3.90
2019-02-23T01:49:14.005Z,3.90
2019-02-23T01:51:43.345Z,3.90
2019-02-23T01:54:12.400Z,4.00
2019-02-23T01:56:41.501Z,4.00
2019-02-23T01:59:10.657Z,4.00
2019-02-23T02:01:39.952Z,4.00
2019-02-23T02:04:09.064Z,4.00
2019-02-23T02:06:38.477Z,4.00
2019-02-23T02:09:07.733Z,4.00
2019-02-23T02:11:36.917Z,4.00
2019-02-23T02:14:06.010Z,4.00
2019-02-23T02:16:35.243Z,4.00
2019-02-23T02:19:04.357Z,4.00
2019-02-23T02:21:33.830Z,4.00
2019-02-23T02:24:03.504Z,4.00
2019-02-23T02:26:32.583Z,4.00
2019-02-23T02:29:01.740Z,3.90
2019-02-23T02:31:31.215Z,3.90
2019-02-23T02:34:18.541Z,3.90
2019-02-23T02:36:48.010Z,3.90
2019-02-23T02:39:17.321Z,3.80
2019-02-23T02:41:46.396Z,3.80
2019-02-23T02:44:15.501Z,3.80
2019-02-23T02:46:44.705Z,3.80
2019-02-23T02:49:13.822Z,3.80
2019-02-23T02:51:42.891Z,3.70
2019-02-23T02:54:12.000Z,3.70
2019-02-23T02:56:41.094Z,3.60
2019-02-23T02:59:10.257Z,3.50
2019-02-23T03:01:40.105Z,3.50
2019-02-23T03:04:09.177Z,3.40
2019-02-23T03:06:38.256Z,3.40
2019-02-23T03:09:10.358Z,3.30
2019-02-23T03:11:39.438Z,3.30
2019-02-23T03:14:08.516Z,3.40
2019-02-23T03:16:37.931Z,3.40
2019-02-23T03:19:07.102Z,3.40
2019-02-23T03:21:36.225Z,3.30
2019-02-23T03:24:05.321Z,3.30
2019-02-23T03:26:34.839Z,3.30
2019-02-23T03:29:03.975Z,3.20
2019-02-23T03:31:33.118Z,3.20
2019-02-23T03:34:02.890Z,3.20
2019-02-23T03:36:32.042Z,3.10
2019-02-23T03:39:01.070Z,3.10
2019-02-23T03:41:30.411Z,3.00
2019-02-23T03:43:59.556Z,3.00
2019-02-23T03:46:28.893Z,3.00
2019-02-23T03:48:58.027Z,2.90
2019-02-23T03:51:27.180Z,2.90
2019-02-23T03:53:56.376Z,2.90
2019-02-23T03:56:25.694Z,2.80
2019-02-23T03:58:54.917Z,2.70
2019-02-23T04:01:24.004Z,2.60
2019-02-23T04:03:53.494Z,2.50
2019-02-23T04:06:22.591Z,2.50
2019-02-23T04:08:51.680Z,2.40
2019-02-23T04:11:20.749Z,2.30
2019-02-23T04:13:50.204Z,2.30
2019-02-23T04:16:19.278Z,2.30
2019-02-23T04:18:48.431Z,2.20
2019-02-23T04:21:17.779Z,2.20
2019-02-23T04:23:46.972Z,2.10
2019-02-23T04:26:16.059Z,2.10
2019-02-23T04:28:45.151Z,2.00
2019-02-23T04:31:14.420Z,2.00
2019-02-23T04:33:44.231Z,1.90
2019-02-23T04:36:13.419Z,1.90
2019-02-23T04:38:42.826Z,1.90
2019-02-23T04:41:12.253Z,1.90
2019-02-23T04:43:44.100Z,1.90
2019-02-23T04:46:12.532Z,1.90
2019-02-23T04:48:42.229Z,1.80
2019-02-23T04:51:14.671Z,1.80
2019-02-23T04:53:42.245Z,1.70
2019-02-23T04:56:11.455Z,1.80
2019-02-23T04:58:40.654Z,1.70
2019-02-23T05:01:09.729Z,1.80
2019-02-23T05:03:38.832Z,1.80
2019-02-23T05:06:07.981Z,1.80
2019-02-23T05:08:37.079Z,1.80
2019-02-23T05:11:06.138Z,1.80
2019-02-23T05:13:35.310Z,1.70
2019-02-23T05:16:04.427Z,1.70
2019-02-23T05:18:33.619Z,1.70
2019-02-23T05:21:02.741Z,1.70
2019-02-23T05:23:31.868Z,1.70
2019-02-23T05:26:00.949Z,1.60
2019-02-23T05:28:30.089Z,1.60
2019-02-23T05:30:59.221Z,1.60
2019-02-23T05:33:28.396Z,1.50
2019-02-23T05:35:57.552Z,1.40
2019-02-23T05:38:26.722Z,1.30
2019-02-23T05:40:55.820Z,1.30
2019-02-23T05:43:25.013Z,1.20
2019-02-23T05:45:54.488Z,1.10
2019-02-23T05:48:23.601Z,1.10
2019-02-23T05:50:53.102Z,1.00
2019-02-23T05:53:22.212Z,0.90
2019-02-23T05:55:51.394Z,0.90
2019-02-23T05:58:20.527Z,0.80
2019-02-23T06:00:49.918Z,0.80
2019-02-23T06:03:19.477Z,0.80
2019-02-23T06:05:48.667Z,0.70
2019-02-23T06:08:17.917Z,0.70
2019-02-23T06:10:48.852Z,0.70
2019-02-23T06:13:18.020Z,0.70
2019-02-23T06:15:47.905Z,0.70
2019-02-23T06:18:16.983Z,0.60
2019-02-23T06:20:46.130Z,0.60
2019-02-23T06:23:15.248Z,0.60
2019-02-23T06:25:44.414Z,0.50
2019-02-23T06:28:13.543Z,0.60
2019-02-23T06:30:42.620Z,0.50
2019-02-23T06:33:11.717Z,0.50
2019-02-23T06:35:40.935Z,0.50
2019-02-23T06:38:10.071Z,0.40
2019-02-23T06:40:39.269Z,0.50
2019-02-23T06:43:08.361Z,0.50
2019-02-23T06:45:37.805Z,0.50
2019-02-23T06:48:07.038Z,0.60
2019-02-23T06:50:36.336Z,0.70
2019-02-23T06:53:07.679Z,0.70
2019-02-23T06:55:39.368Z,0.80
2019-02-23T06:58:09.458Z,0.80
2019-02-23T07:00:38.632Z,0.80
2019-02-23T07:03:07.786Z,0.90
2019-02-23T07:05:36.891Z,1.00
2019-02-23T07:08:06.098Z,1.00
2019-02-23T07:10:35.386Z,1.10
2019-02-23T07:13:04.539Z,1.20
2019-02-23T07:15:33.683Z,1.30
2019-02-23T07:18:15.600Z,1.40
2019-02-23T07:20:46.707Z,1.60
2019-02-23T07:23:15.940Z,1.70
2019-02-23T07:25:45.081Z,1.80
2019-02-23T07:28:14.634Z,1.90
2019-02-23T07:30:43.961Z,1.90
2019-02-23T07:33:13.248Z,2.10
2019-02-23T07:35:42.717Z,2.20
2019-02-23T07:38:12.531Z,2.20
2019-02-23T07:40:42.140Z,2.30
2019-02-23T07:43:11.584Z,2.40
2019-02-23T07:45:59.919Z,2.50
2019-02-23T07:48:29.455Z,2.70
2019-02-23T07:50:58.705Z,2.80
2019-02-23T07:53:27.733Z,2.80
2019-02-23T07:55:57.379Z,2.80
2019-02-23T07:58:26.573Z,2.70
2019-02-23T08:00:55.949Z,2.70
2019-02-23T08:03:26.091Z,2.70
2019-02-23T08:05:55.249Z,2.80
2019-02-23T08:08:24.328Z,2.80
2019-02-23T08:10:53.424Z,2.90
2019-02-23T08:13:22.831Z,3.00
2019-02-23T08:15:52.304Z,3.10
2019-02-23T08:18:23.013Z,3.20
2019-02-23T08:20:52.202Z,3.30
2019-02-23T08:23:21.296Z,3.30
2019-02-23T08:25:50.310Z,3.30
2019-02-23T08:28:19.401Z,3.40
2019-02-23T08:30:49.463Z,3.50
2019-02-23T08:33:18.769Z,3.60
2019-02-23T08:35:48.212Z,3.60
2019-02-23T08:38:17.313Z,3.70
2019-02-23T08:40:46.441Z,3.80
2019-02-23T08:43:15.576Z,3.90
2019-02-23T08:45:45.294Z,4.00
2019-02-23T08:48:14.441Z,4.10
2019-02-23T08:50:43.521Z,4.30
2019-02-23T08:53:12.801Z,4.60
2019-02-23T08:55:42.363Z,4.60
2019-02-23T08:58:11.496Z,4.80
2019-02-23T09:00:44.715Z,4.70
2019-02-23T09:03:14.878Z,4.70
2019-02-23T09:05:44.010Z,4.70
2019-02-23T09:08:13.490Z,4.80
2019-02-23T09:10:45.049Z,5.00
2019-02-23T09:13:17.370Z,5.20
2019-02-23T09:15:46.711Z,5.20
2019-02-23T09:18:16.162Z,5.60
2019-02-23T09:20:45.332Z,5.60
2019-02-23T09:23:15.529Z,5.80
2019-02-23T09:25:46.022Z,5.70
2019-02-23T09:28:15.374Z,6.00
2019-02-23T09:30:44.545Z,6.40
2019-02-23T09:33:13.610Z,6.80
2019-02-23T09:35:42.745Z,6.90
2019-02-23T09:38:11.845Z,6.70
2019-02-23T09:40:40.951Z,6.60
2019-02-23T09:43:10.127Z,6.40
2019-02-23T09:45:39.378Z,6.20
2019-02-23T09:48:09.870Z,6.20
2019-02-23T09:50:39.328Z,6.10
2019-02-23T09:53:11.446Z,5.90
2019-02-23T09:55:39.323Z,5.60
2019-02-23T09:58:08.560Z,5.00
2019-02-23T10:00:37.617Z,4.90
2019-02-23T10:03:06.723Z,4.70
2019-02-23T10:05:38.115Z,4.70
2019-02-23T10:08:07.279Z,4.60
2019-02-23T10:10:36.413Z,4.50
2019-02-23T10:13:05.968Z,4.40
2019-02-23T10:15:35.390Z,4.20
2019-02-23T10:18:04.505Z,4.30
2019-02-23T10:20:33.563Z,4.40
2019-02-23T10:23:03.334Z,4.30
2019-02-23T10:25:32.469Z,4.40
2019-02-23T10:28:01.565Z,4.40
2019-02-23T10:30:30.632Z,4.50
2019-02-23T10:32:59.749Z,4.50
2019-02-23T10:35:29.385Z,4.50
2019-02-23T10:37:58.544Z,4.40
2019-02-23T10:40:28.062Z,4.40
2019-02-23T10:42:57.143Z,4.40
2019-02-23T10:45:26.204Z,4.50
2019-02-23T10:47:55.317Z,4.60
2019-02-23T10:50:24.700Z,4.70
2019-02-23T10:52:53.801Z,4.70
2019-02-23T10:55:22.954Z,4.80
2019-02-23T10:57:52.520Z,4.70
2019-02-23T11:00:22.892Z,4.70
2019-02-23T11:02:51.969Z,4.80
2019-02-23T11:05:21.509Z,4.90
2019-02-23T11:07:50.572Z,4.90
2019-02-23T11:10:20.361Z,5.00
2019-02-23T11:12:49.476Z,5.00
2019-02-23T11:15:19.988Z,5.10
2019-02-23T11:17:49.476Z,5.10
2019-02-23T11:20:19.148Z,5.10
2019-02-23T11:22:48.251Z,5.10
2019-02-23T11:25:17.733Z,5.10
2019-02-23T11:27:46.905Z,5.20
2019-02-23T11:30:16.030Z,5.30
2019-02-23T11:32:45.580Z,5.40
2019-02-23T11:35:17.150Z,5.40
2019-02-23T11:37:46.324Z,5.50
2019-02-23T11:40:15.484Z,5.60
2019-02-23T11:42:45.333Z,5.60
2019-02-23T11:45:14.821Z,5.70
2019-02-23T11:47:51.618Z,5.70
2019-02-23T11:50:21.636Z,5.80
2019-02-23T11:52:50.795Z,5.90
2019-02-23T11:55:20.844Z,5.90
2019-02-23T11:57:49.938Z,6.00
2019-02-23T12:00:19.057Z,6.00
2019-02-23T12:02:52.525Z,6.10
2019-02-23T12:05:19.642Z,6.10
2019-02-23T12:07:48.753Z,6.20
2019-02-23T12:10:17.863Z,6.30
2019-02-23T12:12:47.302Z,6.40
2019-02-23T12:15:16.408Z,6.40
2019-02-23T12:17:45.492Z,6.50
2019-02-23T12:20:15.391Z,6.50
2019-02-23T12:22:44.529Z,6.50
2019-02-23T12:25:16.209Z,6.60
2019-02-23T12:27:44.844Z,6.60
2019-02-23T12:30:14.212Z,6.70
2019-02-23T12:32:43.325Z,6.80
2019-02-23T12:35:12.833Z,6.90
2019-02-23T12:37:41.928Z,6.90
2019-02-23T12:40:11.162Z,7.00
2019-02-23T12:42:40.268Z,7.00
2019-02-23T12:45:09.477Z,7.10
2019-02-23T12:47:38.764Z,7.20
2019-02-23T12:50:08.653Z,7.20
2019-02-23T12:52:37.883Z,7.40
2019-02-23T12:55:07.552Z,7.40
2019-02-23T12:57:36.642Z,7.50
2019-02-23T13:00:06.802Z,7.50
2019-02-23T13:02:36.473Z,7.60
2019-02-23T13:05:06.021Z,7.70
2019-02-23T13:07:35.769Z,7.80
2019-02-23T13:10:06.014Z,7.80
2019-02-23T13:13:25.653Z,7.90
2019-02-23T13:16:07.982Z,7.90
2019-02-23T13:19:30.184Z,8.00
2019-02-23T13:22:44.669Z,8.00
2019-02-23T13:25:53.894Z,7.90
2019-02-23T13:29:07.105Z,7.90
2019-02-23T13:32:07.843Z,8.00
2019-02-23T13:35:19.600Z,8.10
2019-02-23T13:38:15.621Z,8.10
2019-02-23T13:41:26.709Z,8.10
2019-02-23T13:44:27.255Z,8.10
2019-02-23T13:47:22.080Z,8.10
2019-02-23T13:50:27.804Z,8.20
2019-02-23T13:53:26.654Z,8.20
2019-02-23T13:56:33.594Z,8.30
2019-02-23T13:59:46.417Z,8.40
2019-02-23T14:02:50.674Z,8.50
2019-02-23T14:05:39.565Z,8.40
2019-02-23T14:08:45.076Z,8.40
2019-02-23T14:11:33.577Z,8.40
2019-02-23T14:14:43.929Z,8.30
2019-02-23T14:18:03.262Z,8.30
2019-02-23T14:21:10.638Z,8.30
2019-02-23T14:24:22.752Z,8.30
2019-02-23T14:27:27.467Z,8.30
2019-02-23T14:30:24.835Z,8.30
2019-02-23T14:33:37.285Z,8.30
2019-02-23T14:36:13.016Z,8.30
2019-02-23T14:39:30.693Z,8.30
2019-02-23T14:42:19.754Z,8.30
2019-02-23T14:45:28.428Z,8.30
2019-02-23T14:48:38.658Z,8.20
2019-02-23T14:51:52.200Z,8.20
2019-02-23T14:55:01.185Z,8.20
2019-02-23T14:57:50.719Z,8.20
2019-02-23T15:00:43.757Z,8.20
2019-02-23T15:03:44.455Z,8.10
2019-02-23T15:06:51.833Z,8.10
2019-02-23T15:09:49.779Z,8.00
2019-02-23T15:12:46.611Z,8.00
2019-02-23T15:15:26.155Z,7.90
2019-02-23T15:18:50.184Z,7.90
2019-02-23T15:21:50.505Z,7.80
2019-02-23T15:24:52.473Z,7.80
2019-02-23T15:28:05.138Z,7.80
2019-02-23T15:30:53.108Z,7.70
2019-02-23T15:34:09.234Z,7.70
2019-02-23T15:37:01.446Z,7.60
2019-02-23T15:40:10.058Z,7.50
2019-02-23T15:43:31.762Z,7.50
2019-02-23T15:46:45.425Z,7.50
2019-02-23T15:49:34.464Z,7.50
2019-02-23T15:52:07.768Z,7.50
2019-02-23T15:54:37.012Z,7.40
2019-02-23T15:57:06.205Z,7.40
2019-02-23T15:59:35.312Z,7.40
2019-02-23T16:02:04.664Z,7.40
2019-02-23T16:04:33.788Z,7.30
2019-02-23T16:07:03.303Z,7.30
2019-02-23T16:09:32.898Z,7.30
2019-02-23T16:12:02.441Z,7.20
2019-02-23T16:14:31.907Z,7.20
2019-02-23T16:17:01.034Z,7.10
2019-02-23T16:19:30.169Z,7.10
2019-02-23T16:21:59.332Z,7.00
2019-02-23T16:24:28.451Z,7.00
2019-02-23T16:26:57.524Z,6.90
2019-02-23T16:29:26.741Z,6.90
2019-02-23T16:31:56.605Z,6.80
2019-02-23T16:34:25.642Z,6.80
2019-02-23T16:36:55.228Z,6.70
2019-02-23T16:39:24.256Z,6.60
2019-02-23T16:41:53.345Z,6.50
2019-02-23T16:44:22.593Z,6.50
2019-02-23T16:46:52.060Z,6.40
2019-02-23T16:49:21.213Z,6.40
2019-02-23T16:51:50.310Z,6.30
2019-02-23T16:54:19.667Z,6.20
2019-02-23T16:56:49.198Z,6.10
2019-02-23T16:59:18.266Z,6.00
2019-02-23T17:01:47.361Z,5.90
2019-02-23T17:04:16.457Z,5.80
2019-02-23T17:06:46.061Z,5.70
2019-02-23T17:09:15.269Z,5.70
2019-02-23T17:11:44.786Z,5.60
2019-02-23T17:14:14.028Z,5.60
2019-02-23T17:16:43.141Z,5.50
2019-02-23T17:19:12.270Z,5.40
2019-02-23T17:21:41.373Z,5.40
2019-02-23T17:24:10.561Z,5.30
2019-02-23T17:26:40.172Z,5.10
2019-02-23T17:29:09.353Z,5.00
2019-02-23T17:31:38.456Z,4.90
2019-02-23T17:34:07.647Z,4.80
2019-02-23T17:36:36.883Z,4.80
2019-02-23T17:39:06.133Z,4.70
2019-02-23T17:41:37.664Z,4.70
2019-02-23T17:44:07.957Z,4.60
2019-02-23T17:46:37.266Z,4.50
2019-02-23T17:49:06.661Z,4.40
2019-02-23T17:51:35.802Z,4.40
2019-02-23T17:54:04.892Z,4.50
2019-02-23T17:56:34.399Z,4.50
2019-02-23T17:59:03.620Z,4.50
2019-02-23T18:01:32.839Z,4.50
2019-02-23T18:04:02.054Z,4.50
2019-02-23T18:06:31.569Z,4.50
2019-02-23T18:09:01.233Z,4.40
2019-02-23T18:11:30.547Z,4.30
2019-02-23T18:13:59.667Z,4.30
2019-02-23T18:16:29.353Z,4.20
2019-02-23T18:18:58.544Z,4.20
2019-02-23T18:21:27.660Z,4.10
2019-02-23T18:23:56.757Z,3.90
2019-02-23T18:26:25.868Z,3.80
2019-02-23T18:28:54.959Z,3.80
2019-02-23T18:31:26.201Z,3.70
2019-02-23T18:33:56.176Z,3.60
2019-02-23T18:36:26.162Z,3.50
2019-02-23T18:38:55.390Z,3.50
2019-02-23T18:41:24.432Z,3.40
2019-02-23T18:43:53.521Z,3.40
2019-02-23T18:46:22.703Z,3.40
2019-02-23T18:48:51.788Z,3.40
2019-02-23T18:51:20.989Z,3.40
2019-02-23T18:53:50.160Z,3.40
2019-02-23T18:56:20.121Z,3.40
2019-02-23T18:58:49.254Z,3.50
2019-02-23T19:01:37.441Z,3.50
2019-02-23T19:04:06.541Z,3.40
2019-02-23T19:06:35.615Z,3.40
2019-02-23T19:09:05.456Z,3.40
2019-02-23T19:11:35.056Z,3.40
2019-02-23T19:14:04.370Z,3.40
2019-02-23T19:16:33.533Z,3.30
2019-02-23T19:19:02.660Z,3.30
2019-02-23T19:21:31.843Z,3.30
2019-02-23T19:24:02.217Z,3.20
2019-02-23T19:26:37.994Z,3.10
2019-02-23T19:29:02.205Z,3.00
2019-02-23T19:31:31.293Z,3.00
2019-02-23T19:34:00.389Z,3.00
2019-02-23T19:36:29.785Z,3.00
2019-02-23T19:38:58.904Z,3.00
2019-02-23T19:41:28.182Z,3.00
2019-02-23T19:43:57.583Z,3.00
2019-02-23T19:46:26.696Z,3.00
2019-02-23T19:48:55.810Z,3.00
2019-02-23T19:51:24.903Z,2.90
2019-02-23T19:53:53.985Z,2.90
2019-02-23T19:56:23.097Z,2.90
2019-02-23T19:58:52.211Z,2.90
2019-02-23T20:01:21.349Z,2.90
2019-02-23T20:03:50.371Z,2.90
2019-02-23T20:06:19.477Z,2.90
2019-02-23T20:08:48.638Z,2.90
2019-02-23T20:11:17.777Z,2.80
2019-02-23T20:13:46.855Z,2.80
2019-02-23T20:16:15.960Z,2.80
2019-02-23T20:18:45.058Z,2.80
2019-02-23T20:21:14.424Z,2.80
2019-02-23T20:23:43.518Z,2.70
2019-02-23T20:26:12.646Z,2.70
2019-02-23T20:28:41.744Z,2.70
2019-02-23T20:31:10.844Z,2.70
2019-02-23T20:33:39.921Z,2.70
2019-02-23T20:36:09.016Z,2.60
2019-02-23T20:38:39.529Z,2.50
2019-02-23T20:41:08.765Z,2.60
2019-02-23T20:43:37.874Z,2.60
2019-02-23T20:46:06.946Z,2.50
2019-02-23T20:48:36.164Z,2.50
2019-02-23T20:51:05.363Z,2.50
2019-02-23T20:53:34.568Z,2.40
2019-02-23T20:56:03.908Z,2.40
2019-02-23T20:58:33.032Z,2.40
2019-02-23T21:01:02.156Z,2.40
2019-02-23T21:03:31.816Z,2.40
2019-02-23T21:06:00.997Z,2.40
2019-02-23T21:08:30.180Z,2.40
2019-02-23T21:10:59.366Z,2.40
2019-02-23T21:13:28.487Z,2.40
2019-02-23T21:15:57.614Z,2.40
2019-02-23T21:18:26.809Z,2.30
2019-02-23T21:20:56.316Z,2.30
2019-02-23T21:23:25.434Z,2.30
2019-02-23T21:25:54.821Z,2.30
2019-02-23T21:28:23.971Z,2.30
2019-02-23T21:30:53.041Z,2.30
2019-02-23T21:33:22.144Z,2.30
2019-02-23T21:35:51.242Z,2.30
2019-02-23T21:38:20.666Z,2.40
2019-02-23T21:40:49.778Z,2.40
2019-02-23T21:43:18.878Z,2.30
2019-02-23T21:45:47.938Z,2.20
2019-02-23T21:48:17.286Z,2.10
2019-02-23T21:50:46.396Z,2.00
2019-02-23T21:53:15.453Z,2.00
2019-02-23T21:55:45.261Z,1.90
2019-02-23T21:58:14.437Z,1.80
2019-02-23T22:00:43.577Z,1.80
2019-02-23T22:03:12.631Z,1.70
2019-02-23T22:05:41.717Z,1.60
2019-02-23T22:08:10.899Z,1.60
2019-02-23T22:10:40.041Z,1.60
2019-02-23T22:13:09.229Z,1.60
2019-02-23T22:15:38.386Z,1.60
2019-02-23T22:18:07.465Z,1.60
2019-02-23T22:20:36.567Z,1.60
2019-02-23T22:23:05.666Z,1.60
2019-02-23T22:25:34.739Z,1.50
2019-02-23T22:28:03.833Z,1.50
2019-02-23T22:30:32.942Z,1.50
2019-02-23T22:33:03.088Z,1.50
2019-02-23T22:35:32.612Z,1.50
2019-02-23T22:38:02.263Z,1.40
2019-02-23T22:40:31.376Z,1.40
2019-02-23T22:43:01.066Z,1.40
2019-02-23T22:45:30.156Z,1.50
2019-02-23T22:47:59.937Z,1.50
2019-02-23T22:50:29.022Z,1.40
2019-02-23T22:52:58.135Z,1.30
2019-02-23T22:55:27.385Z,1.20
2019-02-23T22:57:56.570Z,1.20
2019-02-23T23:00:30.516Z,1.20
2019-02-23T23:02:59.610Z,1.10
2019-02-23T23:05:29.255Z,1.10
2019-02-23T23:07:58.380Z,1.00
2019-02-23T23:10:27.635Z,1.00
2019-02-23T23:12:57.871Z,0.90
2019-02-23T23:15:27.020Z,0.90
2019-02-23T23:17:56.532Z,0.80
2019-02-23T23:20:25.651Z,0.80
2019-02-23T23:22:54.708Z,0.80
2019-02-23T23:25:23.869Z,0.80
2019-02-23T23:27:52.938Z,0.80
2019-02-23T23:30:22.106Z,0.90
2019-02-23T23:32:51.252Z,0.90
2019-02-23T23:35:20.440Z,0.90
2019-02-23T23:37:49.593Z,1.00
2019-02-23T23:40:18.665Z,1.10
2019-02-23T23:42:48.136Z,1.10
2019-02-23T23:45:17.267Z,1.10
2019-02-23T23:47:46.645Z,1.20
2019-02-23T23:50:15.989Z,1.20
2019-02-23T23:52:45.168Z,1.20
2019-02-23T23:55:14.286Z,1.20
2019-02-23T23:57:43.561Z,1.20
